createdAt,value
2022-12-31T00:05:33.200Z,11.80
2022-12-31T00:08:00.185Z,11.90
2022-12-31T00:10:30.151Z,11.90
2022-12-31T00:12:57.799Z,11.90
2022-12-31T00:15:25.723Z,12.10
2022-12-31T00:20:40.671Z,12.00
2022-12-31T00:23:19.940Z,12.00
2022-12-31T00:28:27.597Z,12.00
2022-12-31T00:31:06.687Z,12.00
2022-12-31T00:33:34.215Z,12.00
2022-12-31T00:36:14.777Z,12.00
2022-12-31T00:41:24.577Z,12.00
2022-12-31T00:49:02.616Z,11.90
2022-12-31T00:59:37.187Z,11.80
2022-12-31T01:02:04.616Z,11.70
2022-12-31T01:04:32.735Z,11.70
2022-12-31T01:07:00.259Z,11.40
2022-12-31T01:12:09.524Z,10.80
2022-12-31T01:14:43.281Z,11.40
2022-12-31T01:19:50.908Z,11.40
2022-12-31T01:22:18.876Z,11.40
2022-12-31T01:24:46.110Z,11.40
2022-12-31T01:27:13.341Z,11.40
2022-12-31T01:29:40.579Z,11.30
2022-12-31T01:32:07.592Z,11.30
2022-12-31T01:34:35.163Z,11.30
2022-12-31T01:37:05.701Z,11.20
2022-12-31T01:44:55.451Z,11.10
2022-12-31T01:47:25.927Z,11.00
2022-12-31T01:49:56.289Z,11.00
2022-12-31T01:52:26.652Z,11.00
2022-12-31T01:55:02.695Z,11.00
2022-12-31T01:57:33.980Z,11.00
2022-12-31T02:00:03.636Z,11.00
2022-12-31T02:06:22.551Z,11.00
2022-12-31T02:08:49.342Z,11.10
2022-12-31T02:11:21.403Z,11.10
2022-12-31T02:16:48.224Z,11.20
2022-12-31T02:19:32.806Z,11.20
2022-12-31T02:25:19.388Z,11.30
2022-12-31T02:27:52.214Z,11.30
2022-12-31T02:33:02.650Z,11.30
2022-12-31T02:35:30.047Z,11.40
2022-12-31T02:38:08.001Z,11.40
2022-12-31T02:40:37.668Z,11.40
2022-12-31T02:43:05.509Z,11.40
2022-12-31T02:45:39.700Z,10.50
2022-12-31T02:48:15.883Z,11.40
2022-12-31T02:50:58.590Z,11.40
2022-12-31T02:53:35.419Z,11.40
2022-12-31T02:56:11.052Z,11.40
2022-12-31T02:59:05.177Z,11.40
2022-12-31T03:01:54.648Z,11.40
2022-12-31T03:04:33.737Z,11.50
2022-12-31T03:07:03.725Z,11.50
2022-12-31T03:09:30.786Z,11.50
2022-12-31T03:12:19.239Z,11.50
2022-12-31T03:14:46.869Z,11.50
2022-12-31T03:17:13.620Z,11.50
2022-12-31T03:19:59.184Z,11.50
2022-12-31T03:22:31.177Z,11.60
2022-12-31T03:25:20.757Z,11.60
2022-12-31T03:27:47.631Z,11.60
2022-12-31T03:30:15.350Z,11.60
2022-12-31T03:32:42.430Z,11.60
2022-12-31T03:35:09.581Z,11.60
2022-12-31T03:37:36.909Z,11.50
2022-12-31T03:40:03.843Z,11.50
2022-12-31T03:42:30.607Z,11.40
2022-12-31T03:44:57.385Z,11.40
2022-12-31T03:47:24.146Z,11.40
2022-12-31T03:49:51.003Z,11.40
2022-12-31T03:52:17.991Z,11.30
2022-12-31T03:54:44.862Z,11.40
2022-12-31T03:57:11.752Z,11.40
2022-12-31T03:59:38.773Z,11.40
2022-12-31T04:02:05.825Z,11.40
2022-12-31T04:04:32.717Z,11.40
2022-12-31T04:06:59.512Z,11.80
2022-12-31T04:09:26.253Z,11.50
2022-12-31T04:11:52.900Z,11.50
2022-12-31T04:14:19.673Z,11.50
2022-12-31T04:16:46.432Z,11.50
2022-12-31T04:19:13.258Z,11.60
2022-12-31T04:21:39.971Z,11.60
2022-12-31T04:24:07.230Z,11.60
2022-12-31T04:26:34.246Z,11.70
2022-12-31T04:29:01.006Z,11.80
2022-12-31T04:31:27.862Z,11.80
2022-12-31T04:33:54.705Z,11.90
2022-12-31T04:36:21.397Z,12.00
2022-12-31T04:38:48.260Z,12.10
2022-12-31T04:41:18.122Z,12.20
2022-12-31T04:43:45.946Z,12.30
2022-12-31T04:46:12.842Z,12.30
2022-12-31T04:48:39.652Z,12.40
2022-12-31T04:51:06.488Z,12.50
2022-12-31T04:53:33.327Z,12.50
2022-12-31T04:56:00.197Z,12.60
2022-12-31T04:58:27.209Z,12.60
2022-12-31T05:00:55.458Z,12.70
2022-12-31T05:03:22.613Z,12.80
2022-12-31T05:05:50.150Z,12.80
2022-12-31T05:08:17.097Z,12.90
2022-12-31T05:10:47.430Z,13.00
2022-12-31T05:13:14.426Z,13.00
2022-12-31T05:15:41.242Z,13.10
2022-12-31T05:18:07.975Z,13.20
2022-12-31T05:20:34.930Z,13.20
2022-12-31T05:23:01.691Z,13.30
2022-12-31T05:25:28.332Z,13.40
2022-12-31T05:27:55.301Z,13.50
2022-12-31T05:30:22.118Z,13.50
2022-12-31T05:32:48.881Z,13.60
2022-12-31T05:35:15.586Z,13.60
2022-12-31T05:37:42.415Z,13.70
2022-12-31T05:40:09.474Z,13.80
2022-12-31T05:42:36.389Z,13.90
2022-12-31T05:45:03.628Z,13.90
2022-12-31T05:47:31.068Z,14.00
2022-12-31T05:49:57.743Z,14.00
2022-12-31T05:52:24.532Z,14.10
2022-12-31T05:54:51.465Z,14.10
2022-12-31T05:57:18.182Z,14.20
2022-12-31T05:59:44.880Z,14.20
2022-12-31T06:02:11.883Z,14.20
2022-12-31T06:04:38.609Z,14.20
2022-12-31T06:07:05.460Z,14.30
2022-12-31T06:09:32.477Z,14.30
2022-12-31T06:11:59.172Z,14.30
2022-12-31T06:14:27.158Z,14.30
2022-12-31T06:16:54.396Z,14.30
2022-12-31T06:19:21.254Z,14.30
2022-12-31T06:21:47.947Z,14.30
2022-12-31T06:24:14.787Z,14.30
2022-12-31T06:26:41.467Z,14.30
2022-12-31T06:29:08.994Z,14.40
2022-12-31T06:31:35.900Z,14.40
2022-12-31T06:34:02.921Z,14.40
2022-12-31T06:36:29.655Z,14.40
2022-12-31T06:38:56.420Z,14.40
2022-12-31T06:41:23.281Z,14.40
2022-12-31T06:43:50.529Z,14.40
2022-12-31T06:46:17.787Z,14.40
2022-12-31T06:48:45.180Z,14.40
2022-12-31T06:51:17.589Z,14.40
2022-12-31T06:53:47.989Z,14.40
2022-12-31T06:56:18.813Z,14.40
2022-12-31T06:58:46.089Z,14.50
2022-12-31T07:01:29.949Z,14.40
2022-12-31T07:03:57.072Z,14.40
2022-12-31T07:06:29.415Z,14.30
2022-12-31T07:09:08.003Z,14.30
2022-12-31T07:11:47.066Z,14.20
2022-12-31T07:14:22.116Z,14.10
2022-12-31T07:16:57.864Z,14.00
2022-12-31T07:19:39.823Z,13.90
2022-12-31T07:22:07.875Z,13.80
2022-12-31T07:24:34.967Z,13.30
2022-12-31T07:27:04.717Z,13.70
2022-12-31T07:29:36.575Z,13.60
2022-12-31T07:32:13.661Z,13.60
2022-12-31T07:34:43.470Z,13.60
2022-12-31T07:37:14.920Z,13.60
2022-12-31T07:39:54.418Z,13.60
2022-12-31T07:42:23.394Z,13.70
2022-12-31T07:44:52.858Z,13.70
2022-12-31T07:47:20.767Z,13.70
2022-12-31T07:49:47.707Z,13.80
2022-12-31T07:52:14.515Z,13.70
2022-12-31T07:54:41.223Z,13.80
2022-12-31T07:57:08.542Z,13.80
2022-12-31T07:59:45.578Z,13.70
2022-12-31T08:02:15.483Z,13.70
2022-12-31T08:04:45.277Z,13.70
2022-12-31T08:07:27.296Z,13.70
2022-12-31T08:09:58.431Z,13.70
2022-12-31T08:12:25.853Z,13.70
2022-12-31T08:14:52.775Z,13.80
2022-12-31T08:17:19.778Z,13.80
2022-12-31T08:19:46.790Z,13.70
2022-12-31T08:22:22.737Z,13.70
2022-12-31T08:25:01.810Z,13.70
2022-12-31T08:27:35.016Z,13.70
2022-12-31T08:30:03.019Z,13.70
2022-12-31T08:32:48.628Z,13.70
2022-12-31T08:35:18.973Z,13.70
2022-12-31T08:37:48.810Z,13.70
2022-12-31T08:40:24.881Z,13.70
2022-12-31T08:42:55.118Z,13.70
2022-12-31T08:45:26.711Z,13.70
2022-12-31T08:48:12.703Z,13.60
2022-12-31T08:50:39.607Z,13.60
2022-12-31T08:53:06.646Z,13.60
2022-12-31T08:55:33.653Z,13.60
2022-12-31T08:58:00.406Z,13.60
2022-12-31T09:00:27.195Z,13.60
2022-12-31T09:03:13.347Z,13.60
2022-12-31T09:05:40.089Z,13.60
2022-12-31T09:08:14.276Z,13.60
2022-12-31T09:10:40.948Z,13.70
2022-12-31T09:13:07.674Z,13.70
2022-12-31T09:15:41.001Z,13.70
2022-12-31T09:18:08.443Z,13.70
2022-12-31T09:20:44.405Z,13.70
2022-12-31T09:23:12.406Z,13.70
2022-12-31T09:25:42.355Z,13.70
2022-12-31T09:28:24.644Z,13.70
2022-12-31T09:30:59.247Z,13.90
2022-12-31T09:33:41.290Z,13.80
2022-12-31T09:36:09.177Z,13.80
2022-12-31T09:38:35.956Z,13.90
2022-12-31T09:41:12.561Z,13.90
2022-12-31T09:43:54.608Z,13.90
2022-12-31T09:46:45.930Z,14.00
2022-12-31T09:49:28.105Z,14.00
2022-12-31T09:52:04.033Z,14.00
2022-12-31T09:54:30.872Z,14.00
2022-12-31T09:57:16.067Z,14.00
2022-12-31T09:59:46.361Z,14.00
2022-12-31T10:02:16.096Z,14.00
2022-12-31T10:05:03.172Z,13.90
2022-12-31T10:07:43.952Z,13.80
2022-12-31T10:10:31.377Z,13.80
2022-12-31T10:12:58.108Z,13.80
2022-12-31T10:15:31.428Z,13.70
2022-12-31T10:17:59.982Z,13.70
2022-12-31T10:20:45.678Z,13.60
2022-12-31T10:23:18.196Z,13.70
2022-12-31T10:25:48.102Z,13.70
2022-12-31T10:28:24.483Z,13.70
2022-12-31T10:31:10.205Z,13.70
2022-12-31T10:33:46.152Z,13.70
2022-12-31T10:36:22.891Z,13.70
2022-12-31T10:38:55.226Z,13.80
2022-12-31T10:41:44.107Z,13.80
2022-12-31T10:44:38.616Z,13.80
2022-12-31T10:47:34.178Z,13.80
2022-12-31T10:50:19.797Z,13.80
2022-12-31T10:53:20.333Z,13.70
2022-12-31T10:55:59.127Z,13.70
2022-12-31T10:58:35.089Z,13.70
2022-12-31T11:01:07.910Z,13.60
2022-12-31T11:03:44.062Z,13.60
2022-12-31T11:06:23.044Z,13.60
2022-12-31T11:09:12.574Z,13.60
2022-12-31T11:11:48.236Z,13.60
2022-12-31T11:14:20.890Z,13.50
2022-12-31T11:16:47.660Z,13.50
2022-12-31T11:19:19.670Z,13.50
2022-12-31T11:21:47.670Z,13.50
2022-12-31T11:24:14.386Z,13.40
2022-12-31T11:26:44.286Z,13.40
2022-12-31T11:29:15.217Z,13.10
2022-12-31T11:31:58.495Z,13.30
2022-12-31T11:34:25.228Z,13.30
2022-12-31T11:37:10.890Z,13.20
2022-12-31T11:39:54.990Z,13.20
2022-12-31T11:42:26.337Z,13.10
2022-12-31T11:45:12.016Z,13.10
2022-12-31T11:48:28.706Z,13.10
2022-12-31T11:51:09.807Z,13.00
2022-12-31T11:54:03.049Z,13.00
2022-12-31T11:56:31.592Z,13.00
2022-12-31T11:58:58.520Z,12.90
2022-12-31T12:01:32.905Z,12.90
2022-12-31T12:04:00.197Z,12.90
2022-12-31T12:06:31.266Z,12.90
2022-12-31T12:09:08.186Z,12.80
2022-12-31T12:11:57.406Z,12.90
2022-12-31T12:14:36.457Z,13.00
2022-12-31T12:17:05.621Z,12.40
2022-12-31T12:19:33.697Z,13.00
2022-12-31T12:22:09.297Z,13.00
2022-12-31T12:24:36.045Z,13.20
2022-12-31T12:27:02.922Z,13.20
2022-12-31T12:29:31.563Z,13.30
2022-12-31T12:32:17.585Z,13.30
2022-12-31T12:34:49.422Z,13.30
2022-12-31T12:37:37.300Z,13.40
2022-12-31T12:40:33.417Z,13.40
2022-12-31T12:43:01.456Z,13.40
2022-12-31T12:45:50.823Z,13.40
2022-12-31T12:48:25.443Z,13.40
2022-12-31T12:50:52.480Z,13.40
2022-12-31T12:53:22.410Z,13.40
2022-12-31T12:56:04.717Z,13.40
2022-12-31T12:58:38.390Z,13.30
2022-12-31T13:01:25.601Z,13.30
2022-12-31T13:04:41.161Z,13.40
2022-12-31T13:07:11.027Z,13.10
2022-12-31T13:09:56.824Z,13.30
2022-12-31T13:12:37.849Z,13.30
2022-12-31T13:15:20.041Z,13.60
2022-12-31T13:17:55.051Z,13.90
2022-12-31T13:20:27.784Z,13.30
2022-12-31T13:22:57.484Z,13.30
2022-12-31T13:25:43.718Z,13.30
2022-12-31T13:28:19.928Z,13.20
2022-12-31T13:30:47.811Z,13.20
2022-12-31T13:33:25.446Z,13.20
2022-12-31T13:36:10.543Z,13.20
2022-12-31T13:38:38.475Z,14.00
2022-12-31T13:41:09.415Z,13.10
2022-12-31T13:43:39.596Z,13.00
2022-12-31T13:46:28.940Z,13.10
2022-12-31T13:49:00.124Z,13.00
2022-12-31T13:51:34.371Z,13.10
2022-12-31T13:54:07.384Z,13.00
2022-12-31T13:56:36.756Z,13.00
2022-12-31T13:59:18.033Z,13.00
2022-12-31T14:01:52.677Z,12.90
2022-12-31T14:07:34.741Z,12.90
2022-12-31T14:10:09.937Z,12.80
2022-12-31T14:12:42.452Z,12.80
2022-12-31T14:16:01.165Z,12.80
2022-12-31T14:21:52.136Z,12.80
2022-12-31T14:24:33.469Z,11.90
2022-12-31T14:27:02.581Z,12.60
2022-12-31T14:29:40.396Z,12.70
2022-12-31T14:32:18.008Z,12.60
2022-12-31T14:35:19.491Z,12.50
2022-12-31T14:37:52.189Z,12.70
2022-12-31T14:40:19.278Z,12.70
2022-12-31T14:43:00.992Z,12.70
2022-12-31T14:48:34.822Z,12.70
2022-12-31T14:51:06.694Z,12.70
2022-12-31T14:53:35.760Z,12.70
2022-12-31T14:56:04.111Z,12.70
2022-12-31T14:58:41.726Z,12.70
2022-12-31T15:06:50.038Z,12.60
2022-12-31T15:09:22.939Z,12.60
2022-12-31T15:12:02.104Z,12.50
2022-12-31T15:14:33.695Z,12.50
2022-12-31T15:17:41.335Z,12.60
2022-12-31T15:20:33.436Z,12.50
2022-12-31T15:28:36.641Z,12.60
2022-12-31T15:31:22.837Z,12.60
2022-12-31T15:34:02.065Z,11.70
2022-12-31T15:36:39.873Z,12.60
2022-12-31T15:39:12.674Z,12.60
2022-12-31T15:44:48.590Z,12.60
2022-12-31T15:47:32.604Z,12.60
2022-12-31T15:52:54.379Z,12.60
2022-12-31T15:55:38.758Z,12.50
2022-12-31T15:58:08.681Z,12.50
2022-12-31T16:00:59.787Z,12.50
2022-12-31T16:03:38.214Z,12.50
2022-12-31T16:06:10.843Z,12.40
2022-12-31T16:08:38.230Z,12.40
2022-12-31T16:11:09.553Z,12.40
2022-12-31T16:19:36.247Z,12.30
2022-12-31T16:22:25.171Z,12.20
2022-12-31T16:25:38.885Z,12.20
2022-12-31T16:27:51.008Z,12.10
2022-12-31T16:30:36.180Z,12.00
2022-12-31T16:33:18.125Z,12.00
2022-12-31T16:35:53.727Z,11.90
2022-12-31T16:41:04.421Z,12.00
2022-12-31T16:46:32.897Z,11.90
2022-12-31T16:49:16.489Z,11.90
2022-12-31T16:51:43.345Z,12.20
2022-12-31T16:54:24.896Z,12.10
2022-12-31T16:59:37.774Z,12.90
2022-12-31T17:02:05.141Z,11.30
2022-12-31T17:04:33.296Z,12.20
2022-12-31T17:07:20.296Z,12.50
2022-12-31T17:09:50.920Z,12.10
2022-12-31T17:12:18.730Z,12.00
2022-12-31T17:14:49.603Z,12.20
2022-12-31T17:17:25.198Z,12.20
2022-12-31T17:22:44.066Z,12.30
2022-12-31T17:28:33.223Z,12.40
2022-12-31T17:31:01.080Z,12.50
2022-12-31T17:33:33.880Z,12.50
2022-12-31T17:36:15.692Z,12.60
2022-12-31T17:38:46.512Z,12.60
2022-12-31T17:41:15.099Z,12.50
2022-12-31T17:43:48.199Z,12.70
2022-12-31T17:46:21.220Z,12.70
2022-12-31T17:48:52.724Z,12.80
2022-12-31T17:54:08.478Z,13.00
2022-12-31T17:56:35.647Z,13.10
2022-12-31T17:59:02.409Z,13.00
2022-12-31T18:01:29.358Z,13.10
2022-12-31T18:03:58.357Z,13.10
2022-12-31T18:06:26.932Z,13.20
2022-12-31T18:08:53.897Z,13.10
2022-12-31T18:11:23.794Z,13.10
2022-12-31T18:13:55.804Z,13.20
2022-12-31T18:16:26.123Z,13.20
2022-12-31T18:19:01.464Z,13.20
2022-12-31T18:21:29.625Z,13.10
2022-12-31T18:26:24.105Z,13.10
2022-12-31T18:28:51.169Z,13.10
2022-12-31T18:31:20.138Z,13.10
2022-12-31T18:33:47.479Z,13.10
2022-12-31T18:36:15.485Z,13.00
2022-12-31T18:38:42.316Z,13.00
2022-12-31T18:41:38.622Z,13.10
2022-12-31T18:44:05.583Z,13.00
2022-12-31T18:46:32.565Z,13.00
2022-12-31T18:49:00.713Z,13.00
2022-12-31T18:51:32.112Z,13.00
2022-12-31T18:54:00.579Z,13.00
2022-12-31T18:56:27.795Z,13.40
2022-12-31T18:58:54.614Z,13.10
2022-12-31T19:01:29.188Z,13.00
2022-12-31T19:03:56.907Z,13.00
2022-12-31T19:06:23.667Z,13.00
2022-12-31T19:08:50.624Z,13.00
2022-12-31T19:11:17.737Z,13.00
2022-12-31T19:13:44.640Z,13.10
2022-12-31T19:16:11.575Z,13.10
2022-12-31T19:18:42.823Z,13.10
2022-12-31T19:21:18.901Z,13.20
2022-12-31T19:23:45.909Z,13.20
2022-12-31T19:26:16.455Z,13.40
2022-12-31T19:28:43.710Z,13.40
2022-12-31T19:31:10.605Z,13.50
2022-12-31T19:33:38.042Z,13.60
2022-12-31T19:36:07.494Z,13.70
2022-12-31T19:38:36.783Z,13.80
2022-12-31T19:41:06.795Z,13.00
2022-12-31T19:43:34.996Z,13.80
2022-12-31T19:46:03.384Z,13.80
2022-12-31T19:48:32.906Z,13.90
2022-12-31T19:51:00.322Z,13.90
2022-12-31T19:53:27.220Z,13.90
2022-12-31T19:55:54.228Z,13.90
2022-12-31T19:58:25.771Z,14.00
2022-12-31T20:00:57.056Z,14.00
2022-12-31T20:03:28.219Z,14.40
2022-12-31T20:06:21.545Z,14.10
2022-12-31T20:08:48.470Z,14.10
2022-12-31T20:11:17.655Z,14.20
2022-12-31T20:13:44.718Z,14.20
2022-12-31T20:16:16.005Z,14.20
2022-12-31T20:18:43.733Z,14.20
2022-12-31T20:21:18.349Z,14.20
2022-12-31T20:23:47.828Z,14.10
2022-12-31T20:26:14.691Z,14.10
2022-12-31T20:28:41.424Z,14.20
2022-12-31T20:31:09.237Z,14.10
2022-12-31T20:33:36.237Z,14.10
2022-12-31T20:36:07.161Z,14.10
2022-12-31T20:38:34.242Z,14.10
2022-12-31T20:41:08.133Z,14.10
2022-12-31T20:43:35.224Z,14.10
2022-12-31T20:46:16.306Z,14.10
2022-12-31T20:48:48.952Z,14.00
2022-12-31T20:51:17.443Z,14.00
2022-12-31T20:53:48.254Z,14.00
2022-12-31T20:56:27.413Z,14.00
2022-12-31T20:58:54.364Z,14.00
2022-12-31T21:01:21.413Z,13.20
2022-12-31T21:04:05.942Z,13.90
2022-12-31T21:06:33.906Z,13.50
2022-12-31T21:09:01.306Z,13.80
2022-12-31T21:11:46.953Z,13.80
2022-12-31T21:14:13.868Z,13.80
2022-12-31T21:16:53.314Z,13.80
2022-12-31T21:20:30.974Z,13.70
2022-12-31T21:22:35.870Z,13.70
2022-12-31T21:25:12.361Z,13.70
2022-12-31T21:27:40.704Z,13.60
2022-12-31T21:30:24.161Z,13.60
2022-12-31T21:32:51.479Z,13.60
2022-12-31T21:38:05.640Z,14.00
2022-12-31T21:40:35.765Z,13.60
2022-12-31T21:43:02.843Z,13.50
2022-12-31T21:45:29.703Z,13.50
2022-12-31T21:48:21.660Z,13.50
2022-12-31T21:50:49.803Z,13.40
2022-12-31T21:53:29.016Z,13.40
2022-12-31T21:56:17.983Z,13.40
2022-12-31T21:58:45.911Z,13.40
2022-12-31T22:01:37.263Z,13.40
2022-12-31T22:04:05.618Z,13.40
2022-12-31T22:06:33.747Z,13.40
2022-12-31T22:09:01.745Z,13.30
2022-12-31T22:11:28.640Z,13.30
2022-12-31T22:14:12.367Z,13.30
2022-12-31T22:16:42.531Z,13.30
2022-12-31T22:19:16.713Z,13.30
2022-12-31T22:22:04.440Z,13.30
2022-12-31T22:24:34.928Z,13.30
2022-12-31T22:29:42.284Z,13.20
2022-12-31T22:32:30.427Z,13.20
2022-12-31T22:34:57.543Z,13.20
2022-12-31T22:37:56.464Z,13.20
2022-12-31T22:40:23.466Z,13.20
2022-12-31T22:42:52.516Z,13.20
2022-12-31T22:45:21.633Z,13.10
2022-12-31T22:47:48.386Z,13.20
2022-12-31T22:50:15.104Z,13.10
2022-12-31T22:52:42.912Z,13.10
2022-12-31T22:55:10.639Z,13.10
2022-12-31T22:57:39.056Z,13.00
2022-12-31T23:00:12.628Z,13.10
2022-12-31T23:02:41.887Z,13.00
2022-12-31T23:05:15.202Z,13.00
2022-12-31T23:07:43.282Z,13.00
2022-12-31T23:10:30.256Z,13.60
2022-12-31T23:12:57.027Z,13.00
2022-12-31T23:15:43.300Z,13.00
2022-12-31T23:18:29.863Z,13.00
2022-12-31T23:21:15.495Z,13.60
2022-12-31T23:23:42.423Z,13.00
2022-12-31T23:26:09.257Z,12.90
2022-12-31T23:28:36.074Z,12.90
2022-12-31T23:31:05.376Z,12.90
2022-12-31T23:33:32.122Z,12.90
2022-12-31T23:36:05.648Z,12.90
2022-12-31T23:38:32.428Z,12.90
2022-12-31T23:40:59.193Z,12.90
2022-12-31T23:43:25.984Z,12.90
2022-12-31T23:45:52.791Z,13.00
2022-12-31T23:48:20.192Z,13.00
2022-12-31T23:50:52.923Z,13.00
2022-12-31T23:53:20.611Z,13.00
2022-12-31T23:55:47.418Z,13.00
2022-12-31T23:58:14.105Z,13.00
